Aviation Digital Data Service (ADDS)

Output produced by METARs form (0253 UTC 19 April 2014)
found at http://aviationweather.gov/adds/metars/
 
KDTW 182320Z 1900/2006 02008KT P6SM FEW050 
     FM191400 07008KT P6SM SKC